Time;durP1;ratioP1;P1;durP2;ratioP2;P2;SDS_P1;SDS_P2;PMS_P1;PMS_P2;Temp;Humidity;BMP_temperature;BMP_pressure;BME280_temperature;BME280_humidity;BME280_pressure;Samples;Min_cycle;Max_cycle;Signal;HPM_P1;HPM_P2
2021/06/17 00:00:17;;;;;;;11.80;10.80;;;23.70;1.00;;;;;;5077961;28;20983;-58
2021/06/17 00:02:44;;;;;;;12.77;11.67;;;23.70;1.00;;;;;;5074645;28;20190;-58
2021/06/17 00:05:13;;;;;;;12.07;11.07;;;23.60;1.00;;;;;;5081079;28;20440;-60
2021/06/17 00:07:38;;;;;;;12.67;11.43;;;23.60;1.00;;;;;;5081328;28;20444;-59
2021/06/17 00:10:06;;;;;;;12.37;11.33;;;23.40;1.00;;;;;;5085238;28;20440;-60
2021/06/17 00:12:32;;;;;;;11.73;10.53;;;23.50;1.00;;;;;;5090793;28;20187;-58
2021/06/17 00:14:57;;;;;;;11.30;10.40;;;23.50;1.00;;;;;;5080484;28;20922;-59
2021/06/17 00:17:23;;;;;;;11.70;10.47;;;23.40;1.00;;;;;;5056748;28;20266;-59
2021/06/17 00:19:48;;;;;;;11.67;10.77;;;23.50;1.00;;;;;;5077540;28;20198;-59
2021/06/17 00:22:14;;;;;;;11.93;10.90;;;23.40;1.00;;;;;;5079098;28;20170;-60
2021/06/17 00:24:39;;;;;;;10.90;10.00;;;23.40;1.00;;;;;;5079790;28;20582;-59
2021/06/17 00:27:05;;;;;;;12.17;11.17;;;23.40;1.00;;;;;;5089720;28;20528;-59
2021/06/17 00:29:31;;;;;;;11.87;10.87;;;23.40;1.00;;;;;;5077396;28;20237;-58
2021/06/17 00:31:56;;;;;;;12.20;11.10;;;23.30;1.00;;;;;;5080438;28;20190;-59
2021/06/17 00:34:22;;;;;;;12.43;11.40;;;23.30;1.00;;;;;;5083589;28;20232;-60
2021/06/17 00:36:48;;;;;;;11.50;10.60;;;23.30;1.00;;;;;;5083794;28;20309;-60
2021/06/17 00:39:13;;;;;;;12.10;11.10;;;23.30;1.00;;;;;;5071992;28;20224;-59
2021/06/17 00:41:40;;;;;;;11.83;10.63;;;23.20;1.00;;;;;;5079868;28;20179;-59
2021/06/17 00:44:06;;;;;;;11.83;10.73;;;23.20;1.00;;;;;;5083322;28;20199;-60
2021/06/17 00:46:33;;;;;;;11.33;10.33;;;23.20;1.00;;;;;;5084439;28;20988;-59
2021/06/17 00:48:59;;;;;;;12.97;11.70;;;23.10;1.00;;;;;;5078300;28;21013;-59
2021/06/17 00:51:24;;;;;;;12.17;11.07;;;23.10;1.00;;;;;;5079151;28;20533;-59
2021/06/17 00:53:50;;;;;;;11.67;10.47;;;23.10;1.00;;;;;;5075387;28;20187;-60
2021/06/17 00:56:17;;;;;;;11.10;10.10;;;23.00;1.00;;;;;;5080436;28;20203;-60
2021/06/17 00:58:43;;;;;;;14.53;11.30;;;22.90;1.00;;;;;;5084055;28;20190;-59
2021/06/17 01:01:09;;;;;;;12.17;10.60;;;23.00;1.00;;;;;;5077275;28;20426;-60
2021/06/17 01:03:34;;;;;;;12.00;10.90;;;23.00;1.00;;;;;;5075711;28;20474;-60
2021/06/17 01:06:00;;;;;;;11.47;10.27;;;23.00;1.00;;;;;;5084905;28;20211;-59
2021/06/17 01:09:01;;;;;;;11.60;10.60;;;23.00;1.00;;;;;;5075993;28;20223;-58
2021/06/17 01:11:45;;;;;;;10.80;9.80;;;22.90;1.00;;;;;;5077381;28;20259;-59
2021/06/17 01:14:27;;;;;;;11.30;10.40;;;23.00;1.00;;;;;;5086232;28;20798;-60
2021/06/17 01:17:08;;;;;;;11.80;10.80;;;22.90;1.00;;;;;;5086065;28;20525;-60
2021/06/17 01:19:53;;;;;;;11.80;10.60;;;22.90;1.00;;;;;;5076604;28;20911;-61
2021/06/17 01:22:31;;;;;;;11.17;10.17;;;22.80;1.00;;;;;;5077854;28;20440;-63
2021/06/17 01:25:00;;;;;;;12.40;11.23;;;22.80;1.00;;;;;;5086224;28;20436;-59
2021/06/17 01:27:26;;;;;;;11.70;10.60;;;22.80;1.00;;;;;;5080695;28;20437;-60
2021/06/17 01:29:56;;;;;;;10.90;9.90;;;22.80;1.00;;;;;;5083771;28;20494;-60
2021/06/17 01:32:23;;;;;;;11.70;10.70;;;22.80;1.00;;;;;;5087174;28;20179;-59
2021/06/17 01:34:51;;;;;;;14.30;11.70;;;22.80;1.00;;;;;;5086436;28;20432;-58
2021/06/17 01:37:19;;;;;;;10.50;9.60;;;22.70;1.00;;;;;;5086333;28;20527;-59
2021/06/17 01:39:46;;;;;;;10.47;9.57;;;22.70;1.00;;;;;;5071816;28;20978;-59
2021/06/17 01:42:14;;;;;;;11.30;10.30;;;22.70;1.00;;;;;;5077555;28;20956;-58
2021/06/17 01:44:41;;;;;;;11.03;10.20;;;22.70;1.00;;;;;;5084361;28;20516;-59
2021/06/17 01:47:08;;;;;;;12.97;10.13;;;22.70;1.00;;;;;;5078911;28;20462;-59
2021/06/17 01:49:37;;;;;;;10.77;9.77;;;22.60;1.00;;;;;;5077738;28;20441;-59
2021/06/17 01:52:05;;;;;;;11.03;10.13;;;22.60;1.00;;;;;;5089997;28;20433;-59
2021/06/17 01:54:31;;;;;;;11.40;10.50;;;22.60;1.00;;;;;;5083166;28;20782;-60
2021/06/17 01:56:59;;;;;;;11.30;10.30;;;22.60;1.00;;;;;;5081394;28;20965;-59
2021/06/17 01:59:29;;;;;;;10.83;9.97;;;22.60;1.00;;;;;;5082541;28;20433;-58
2021/06/17 02:01:57;;;;;;;11.37;10.37;;;22.70;1.00;;;;;;5082574;28;20433;-60
2021/06/17 02:04:25;;;;;;;13.77;10.40;;;22.60;1.00;;;;;;5081841;28;20444;-60
2021/06/17 02:06:52;;;;;;;11.37;10.37;;;22.60;1.00;;;;;;5085165;28;20438;-57
2021/06/17 02:09:18;;;;;;;11.47;10.37;;;22.50;1.00;;;;;;5081083;28;20448;-58
2021/06/17 02:11:44;;;;;;;11.73;10.53;;;22.50;1.00;;;;;;5075950;28;20527;-59
2021/06/17 02:14:11;;;;;;;11.43;10.30;;;22.50;1.00;;;;;;5084967;28;20435;-58
2021/06/17 02:16:40;;;;;;;12.20;11.03;;;22.50;1.00;;;;;;5074199;28;20466;-58
2021/06/17 02:19:08;;;;;;;11.10;10.10;;;22.40;1.00;;;;;;5075718;28;20502;-58
2021/06/17 02:21:34;;;;;;;11.80;10.80;;;22.30;1.00;;;;;;5076775;28;20547;-59
2021/06/17 02:24:02;;;;;;;11.40;10.40;;;22.40;1.00;;;;;;5082308;28;20430;-59
2021/06/17 02:26:29;;;;;;;9.97;9.17;;;22.40;1.00;;;;;;5082800;28;20429;-60
2021/06/17 02:28:59;;;;;;;10.83;9.87;;;22.40;1.00;;;;;;5076184;28;20543;-59
2021/06/17 02:31:30;;;;;;;11.10;10.10;;;22.30;1.00;;;;;;5083390;28;20883;-59
2021/06/17 02:33:56;;;;;;;11.90;11.00;;;22.30;1.00;;;;;;5077812;28;20441;-60
2021/06/17 02:36:27;;;;;;;11.23;10.33;;;22.30;1.00;;;;;;5080746;28;20482;-59
2021/06/17 02:38:56;;;;;;;10.03;9.23;;;22.30;1.00;;;;;;5087991;28;20202;-58
2021/06/17 02:41:22;;;;;;;10.67;9.73;;;22.30;1.00;;;;;;5082735;28;20847;-59
2021/06/17 02:43:52;;;;;;;10.40;9.50;;;22.30;1.00;;;;;;5079509;28;20807;-60
2021/06/17 02:46:19;;;;;;;11.10;10.20;;;22.40;1.00;;;;;;5079988;28;20445;-59
2021/06/17 02:48:45;;;;;;;10.20;9.40;;;22.30;1.00;;;;;;5078005;28;20476;-59
2021/06/17 02:51:11;;;;;;;10.80;9.90;;;22.30;1.00;;;;;;5081736;28;20440;-59
2021/06/17 02:53:36;;;;;;;11.10;10.00;;;22.30;1.00;;;;;;5088671;28;20191;-58
2021/06/17 02:56:16;;;;;;;10.97;9.87;;;22.20;1.00;;;;;;5089323;28;20211;-60
2021/06/17 02:59:07;;;;;;;10.43;9.60;;;22.30;1.00;;;;;;5074867;28;20186;-59
2021/06/17 03:01:34;;;;;;;10.50;9.60;;;22.30;1.00;;;;;;5071870;28;20432;-59
2021/06/17 03:04:25;;;;;;;10.97;9.83;;;22.30;1.00;;;;;;5080462;28;20430;-59
2021/06/17 03:06:52;;;;;;;10.67;9.70;;;22.30;1.00;;;;;;5060517;28;20937;-60
2021/06/17 03:09:44;;;;;;;10.20;9.37;;;22.40;1.00;;;;;;5081413;28;20428;-59
2021/06/17 03:12:13;;;;;;;10.57;9.57;;;22.30;1.00;;;;;;5075191;28;20803;-59
2021/06/17 03:14:40;;;;;;;11.20;10.00;;;22.30;1.00;;;;;;5080852;28;20434;-60
2021/06/17 03:17:08;;;;;;;9.97;9.17;;;22.40;1.00;;;;;;5074138;28;20454;-59
2021/06/17 03:19:34;;;;;;;10.90;10.00;;;22.40;1.00;;;;;;5079200;28;20508;-59
2021/06/17 03:22:05;;;;;;;10.73;9.63;;;22.40;1.00;;;;;;5084332;28;20440;-60
2021/06/17 03:24:36;;;;;;;9.93;9.17;;;22.50;1.00;;;;;;5072604;28;20456;-58
2021/06/17 03:27:04;;;;;;;11.23;9.97;;;22.50;1.00;;;;;;5074445;28;20438;-59
2021/06/17 03:29:34;;;;;;;11.13;10.03;;;22.60;1.00;;;;;;5087686;28;20807;-59
2021/06/17 03:32:01;;;;;;;10.80;9.90;;;22.70;1.00;;;;;;5078052;28;20429;-59
2021/06/17 03:34:28;;;;;;;10.10;9.30;;;23.00;1.00;;;;;;5086421;28;21019;-58
2021/06/17 03:36:56;;;;;;;10.03;9.00;;;23.10;1.00;;;;;;5080770;28;20461;-61
2021/06/17 03:39:22;;;;;;;10.70;8.80;;;23.30;1.00;;;;;;5080626;28;20433;-57
2021/06/17 03:41:49;;;;;;;10.70;8.30;;;23.40;1.00;;;;;;5082558;28;20459;-59
2021/06/17 03:44:15;;;;;;;10.37;9.57;;;23.60;1.00;;;;;;5088643;28;20435;-59
2021/06/17 03:46:43;;;;;;;9.87;9.03;;;23.70;1.00;;;;;;5075004;28;20926;-60
2021/06/17 03:49:09;;;;;;;9.10;8.30;;;23.80;1.00;;;;;;5084088;28;20449;-58
2021/06/17 03:51:37;;;;;;;9.93;8.77;;;23.90;1.00;;;;;;5082708;28;20437;-58
2021/06/17 03:54:03;;;;;;;10.50;9.40;;;24.00;1.00;;;;;;5079295;28;20588;-60
2021/06/17 03:56:29;;;;;;;9.30;8.43;;;23.90;1.00;;;;;;5072094;28;20461;-58
2021/06/17 03:58:55;;;;;;;9.97;9.07;;;23.80;1.00;;;;;;5075576;28;20876;-58
2021/06/17 04:01:21;;;;;;;9.40;8.50;;;23.80;1.00;;;;;;5082856;28;20191;-58
2021/06/17 04:03:47;;;;;;;10.00;9.00;;;23.50;1.00;;;;;;5071852;28;20490;-60
2021/06/17 04:06:16;;;;;;;9.70;8.97;;;23.60;1.00;;;;;;5078215;28;20437;-58
2021/06/17 04:08:48;;;;;;;9.13;8.33;;;24.70;1.00;;;;;;5081330;28;20526;-58
2021/06/17 04:11:15;;;;;;;10.23;9.37;;;23.40;1.00;;;;;;5073548;28;20941;-59
2021/06/17 04:13:42;;;;;;;10.37;9.27;;;23.30;1.00;;;;;;5084011;28;20436;-59
2021/06/17 04:16:18;;;;;;;10.17;9.37;;;23.30;1.00;;;;;;5081079;28;20464;-57
2021/06/17 04:18:45;;;;;;;10.60;8.83;;;23.30;1.00;;;;;;5080669;28;20428;-59
2021/06/17 04:21:13;;;;;;;8.97;8.20;;;23.30;1.00;;;;;;5089311;28;20525;-58
2021/06/17 04:23:42;;;;;;;10.50;9.37;;;23.30;1.00;;;;;;5086482;28;20425;-58
2021/06/17 04:26:08;;;;;;;10.43;8.90;;;23.30;1.00;;;;;;5075429;28;20450;-58
2021/06/17 04:28:35;;;;;;;10.17;9.27;;;23.40;1.00;;;;;;5087821;28;20473;-59
2021/06/17 04:31:02;;;;;;;10.00;8.77;;;23.40;1.00;;;;;;5086170;28;20554;-59
2021/06/17 04:33:28;;;;;;;9.57;8.77;;;23.50;1.00;;;;;;5071984;28;20484;-58
2021/06/17 04:35:59;;;;;;;10.33;9.37;;;23.50;1.00;;;;;;5077226;28;20799;-58
2021/06/17 04:38:26;;;;;;;9.90;8.90;;;23.60;1.00;;;;;;5075992;28;20502;-59
2021/06/17 04:40:52;;;;;;;9.63;8.80;;;23.60;1.00;;;;;;5079659;28;20432;-58
2021/06/17 04:43:22;;;;;;;8.13;7.53;;;23.70;1.00;;;;;;5085198;28;20432;-61
2021/06/17 04:45:49;;;;;;;9.60;8.80;;;23.70;1.00;;;;;;5081615;28;20554;-58
2021/06/17 04:48:15;;;;;;;9.63;8.73;;;23.80;1.00;;;;;;5083732;28;21021;-60
2021/06/17 04:50:41;;;;;;;9.33;8.60;;;23.90;1.00;;;;;;5082794;28;20483;-58
2021/06/17 04:53:11;;;;;;;8.47;7.77;;;23.90;1.00;;;;;;5082789;28;20469;-58
2021/06/17 04:55:41;;;;;;;9.77;8.87;;;23.90;1.00;;;;;;5075715;28;20301;-59
2021/06/17 04:58:07;;;;;;;8.60;7.80;;;24.00;1.00;;;;;;5088924;28;20470;-59
2021/06/17 05:00:32;;;;;;;8.57;7.63;;;24.10;1.00;;;;;;5088614;28;20433;-59
2021/06/17 05:02:58;;;;;;;8.47;7.77;;;24.20;1.00;;;;;;5085773;28;20191;-58
2021/06/17 05:05:24;;;;;;;9.07;8.17;;;24.30;1.00;;;;;;5081496;28;20656;-58
2021/06/17 05:10:48;;;;;;;8.53;7.70;;;24.30;1.00;;;;;;5082115;28;20649;-60
2021/06/17 05:10:48;;;;;;;8.57;7.73;;;24.40;1.00;;;;;;5069924;28;20190;-60
2021/06/17 05:13:14;;;;;;;8.87;8.07;;;24.50;1.00;;;;;;5084762;28;21400;-60
2021/06/17 05:15:40;;;;;;;8.50;7.90;;;24.50;1.00;;;;;;5086332;28;20459;-60
2021/06/17 05:18:05;;;;;;;9.00;8.20;;;24.50;1.00;;;;;;5089169;28;20460;-59
2021/06/17 05:20:31;;;;;;;9.50;8.60;;;24.50;1.00;;;;;;5092766;28;20266;-59
2021/06/17 05:22:56;;;;;;;8.53;7.73;;;24.50;1.00;;;;;;5080966;28;20189;-58
2021/06/17 05:25:22;;;;;;;8.87;8.07;;;24.60;1.00;;;;;;5086574;28;20190;-59
2021/06/17 05:27:48;;;;;;;10.37;9.37;;;24.70;1.00;;;;;;5077437;28;20298;-60
2021/06/17 05:30:14;;;;;;;9.20;8.13;;;24.70;1.00;;;;;;5084778;28;20278;-58
2021/06/17 05:32:41;;;;;;;9.40;8.50;;;24.80;1.00;;;;;;5083247;28;20183;-60
2021/06/17 05:35:08;;;;;;;8.77;7.90;;;24.80;1.00;;;;;;5078850;28;21029;-58
2021/06/17 05:37:33;;;;;;;9.43;8.50;;;24.90;1.00;;;;;;5091662;28;20938;-58
2021/06/17 05:39:59;;;;;;;9.30;8.30;;;24.90;1.00;;;;;;5083277;28;20437;-60
2021/06/17 05:42:24;;;;;;;8.80;8.03;;;25.10;1.00;;;;;;5082938;28;20191;-59
2021/06/17 05:44:52;;;;;;;11.60;8.90;;;25.20;1.00;;;;;;5086610;28;20182;-57
2021/06/17 05:47:18;;;;;;;9.40;8.50;;;25.20;1.00;;;;;;5083412;28;20203;-60
2021/06/17 05:49:44;;;;;;;13.00;11.90;;;25.30;1.00;;;;;;5082037;28;20933;-58
2021/06/17 05:52:10;;;;;;;9.00;8.10;;;25.40;1.00;;;;;;5087356;28;20528;-60
2021/06/17 05:54:35;;;;;;;9.40;8.57;;;25.40;1.00;;;;;;5075712;28;20183;-58
2021/06/17 05:57:01;;;;;;;9.60;8.73;;;25.40;1.00;;;;;;5088645;28;20206;-60
2021/06/17 05:59:26;;;;;;;10.70;9.67;;;25.50;1.00;;;;;;5076952;28;20219;-59
2021/06/17 06:01:52;;;;;;;9.23;8.23;;;25.60;1.00;;;;;;5084489;28;20187;-58
2021/06/17 06:04:17;;;;;;;9.87;9.07;;;25.70;1.00;;;;;;5088734;28;20182;-59
2021/06/17 06:06:43;;;;;;;9.43;8.53;;;25.70;1.00;;;;;;5084565;28;20183;-59
2021/06/17 06:09:09;;;;;;;9.37;8.57;;;25.80;1.00;;;;;;5077168;28;20191;-60
2021/06/17 06:11:35;;;;;;;9.00;8.20;;;26.00;1.00;;;;;;5083562;28;20520;-63
2021/06/17 06:14:00;;;;;;;12.60;9.37;;;26.00;1.00;;;;;;5084768;28;20179;-60
2021/06/17 06:16:28;;;;;;;8.97;8.27;;;26.00;1.00;;;;;;5086753;28;20452;-58
2021/06/17 06:18:53;;;;;;;9.03;8.13;;;26.10;1.00;;;;;;5081647;28;20648;-59
2021/06/17 06:21:19;;;;;;;13.60;8.60;;;26.20;1.00;;;;;;5085764;28;20414;-59
2021/06/17 06:23:44;;;;;;;8.70;7.97;;;26.20;1.00;;;;;;5074666;28;20645;-60
2021/06/17 06:26:10;;;;;;;10.07;8.17;;;26.30;1.00;;;;;;5086744;28;20179;-58
2021/06/17 06:28:35;;;;;;;8.77;8.07;;;26.40;1.00;;;;;;5080946;28;20575;-59
2021/06/17 06:31:01;;;;;;;8.97;8.03;;;26.50;1.00;;;;;;5082678;28;20187;-59
2021/06/17 06:33:26;;;;;;;9.63;8.70;;;26.60;1.00;;;;;;5080408;28;20495;-61
2021/06/17 06:35:52;;;;;;;9.83;8.50;;;26.70;1.00;;;;;;5074737;28;20215;-58
2021/06/17 06:38:18;;;;;;;8.70;8.00;;;26.80;1.00;;;;;;5080566;28;20180;-59
2021/06/17 06:40:44;;;;;;;9.57;8.17;;;26.80;1.00;;;;;;5077801;28;20190;-60
2021/06/17 06:43:12;;;;;;;10.50;8.77;;;26.80;1.00;;;;;;5086795;28;20416;-59
2021/06/17 06:45:39;;;;;;;9.20;8.20;;;27.10;1.00;;;;;;5086923;28;20415;-59
2021/06/17 06:48:04;;;;;;;9.30;8.50;;;27.30;1.00;;;;;;5074635;28;20463;-58
2021/06/17 06:50:31;;;;;;;8.83;7.93;;;27.40;1.00;;;;;;5080477;28;20907;-59
2021/06/17 06:52:57;;;;;;;9.67;7.63;;;27.70;1.00;;;;;;5077745;28;20191;-59
2021/06/17 06:55:23;;;;;;;8.50;7.70;;;27.70;1.00;;;;;;5074526;28;20477;-60
2021/06/17 06:57:49;;;;;;;8.50;7.60;;;27.90;1.00;;;;;;5075367;28;20252;-58
2021/06/17 07:00:16;;;;;;;8.83;8.03;;;27.90;1.00;;;;;;5089172;28;21220;-60
2021/06/17 07:02:42;;;;;;;8.20;7.50;;;27.90;1.00;;;;;;5087144;28;20187;-60
2021/06/17 07:05:08;;;;;;;9.37;7.20;;;28.00;1.00;;;;;;5079756;28;20941;-59
2021/06/17 07:07:34;;;;;;;15.10;9.53;;;28.10;1.00;;;;;;5087168;28;20489;-60
2021/06/17 07:10:00;;;;;;;9.10;8.20;;;28.10;1.00;;;;;;5081944;28;20408;-61
2021/06/17 07:12:25;;;;;;;14.70;9.27;;;28.20;1.00;;;;;;5073188;28;20179;-60
2021/06/17 07:14:51;;;;;;;9.87;8.30;;;28.30;1.00;;;;;;5081253;28;20183;-60
2021/06/17 07:17:17;;;;;;;10.23;7.73;;;28.50;1.00;;;;;;5078512;28;20180;-60
2021/06/17 07:19:43;;;;;;;9.13;8.43;;;28.60;1.00;;;;;;5086271;28;20497;-60
2021/06/17 07:22:09;;;;;;;9.60;7.90;;;28.70;1.00;;;;;;5081750;28;20183;-60
2021/06/17 07:24:35;;;;;;;11.60;8.67;;;28.80;1.00;;;;;;5082649;28;20195;-62
2021/06/17 07:27:02;;;;;;;8.20;7.50;;;28.90;1.00;;;;;;5088065;28;20429;-58
2021/06/17 07:29:28;;;;;;;9.23;8.43;;;29.00;1.00;;;;;;5084085;28;20279;-59
2021/06/17 07:31:53;;;;;;;9.30;8.40;;;28.90;1.00;;;;;;5085176;28;20408;-59
2021/06/17 07:34:21;;;;;;;8.70;7.90;;;29.10;1.00;;;;;;5082500;28;20183;-60
2021/06/17 07:36:47;;;;;;;8.87;8.03;;;29.00;1.00;;;;;;5091437;28;20206;-59
2021/06/17 07:39:13;;;;;;;9.63;7.90;;;29.10;1.00;;;;;;5089834;28;20436;-61
2021/06/17 07:41:39;;;;;;;13.97;8.00;;;29.10;1.00;;;;;;5085948;28;20175;-61
2021/06/17 07:44:05;;;;;;;8.93;8.13;;;29.20;1.00;;;;;;5084392;28;20425;-60
2021/06/17 07:46:31;;;;;;;9.00;8.20;;;29.30;1.00;;;;;;5080360;28;20439;-58
2021/06/17 07:49:00;;;;;;;8.77;7.87;;;29.50;1.00;;;;;;5081290;28;20883;-60
2021/06/17 07:51:28;;;;;;;8.13;7.33;;;29.40;1.00;;;;;;5080755;28;20445;-60
2021/06/17 07:53:54;;;;;;;8.10;7.27;;;29.30;1.00;;;;;;5082882;28;20437;-59
2021/06/17 07:56:20;;;;;;;10.70;7.90;;;29.30;1.00;;;;;;5074276;28;20990;-61
2021/06/17 07:58:47;;;;;;;7.93;7.30;;;29.50;1.00;;;;;;5081525;28;20445;-61
2021/06/17 08:01:13;;;;;;;8.97;8.17;;;29.70;1.00;;;;;;5076936;28;20519;-61
2021/06/17 08:03:38;;;;;;;9.03;8.13;;;29.80;1.00;;;;;;5084573;28;20999;-61
2021/06/17 08:06:04;;;;;;;8.67;7.10;;;29.90;1.00;;;;;;5082208;28;20645;-62
2021/06/17 08:08:30;;;;;;;10.83;7.60;;;30.10;1.00;;;;;;5075704;28;20263;-60
2021/06/17 08:10:56;;;;;;;8.40;7.60;;;30.10;1.00;;;;;;5078207;28;20184;-61
2021/06/17 08:13:22;;;;;;;8.30;7.50;;;30.10;1.00;;;;;;5077403;28;20445;-61
2021/06/17 08:15:48;;;;;;;8.30;7.70;;;30.30;1.00;;;;;;5077920;28;20214;-61
2021/06/17 08:18:14;;;;;;;7.73;7.13;;;30.40;1.00;;;;;;5076333;28;20172;-58
2021/06/17 08:20:42;;;;;;;7.97;7.20;;;30.40;1.00;;;;;;5078843;28;20414;-60
2021/06/17 08:23:08;;;;;;;6.73;6.03;;;30.50;1.00;;;;;;5084605;28;20187;-63
2021/06/17 08:25:34;;;;;;;7.37;6.63;;;30.60;1.00;;;;;;5086402;28;20435;-59
2021/06/17 08:28:04;;;;;;;7.53;6.90;;;30.70;1.00;;;;;;5078242;28;20469;-61
2021/06/17 08:30:31;;;;;;;7.20;6.50;;;30.40;1.00;;;;;;5089365;28;20190;-60
2021/06/17 08:32:57;;;;;;;7.03;6.37;;;30.40;1.00;;;;;;5086988;28;20502;-59
2021/06/17 08:35:22;;;;;;;7.27;6.60;;;30.30;1.00;;;;;;5074270;28;20970;-61
2021/06/17 08:37:48;;;;;;;8.00;6.80;;;30.30;1.00;;;;;;5086802;28;20182;-59
2021/06/17 08:40:14;;;;;;;7.43;6.93;;;30.40;1.00;;;;;;5090192;28;20231;-59
2021/06/17 08:42:39;;;;;;;8.43;6.80;;;30.70;1.00;;;;;;5076995;28;20179;-59
2021/06/17 08:45:09;;;;;;;6.73;6.23;;;30.80;1.00;;;;;;5074249;28;20184;-60
2021/06/17 08:47:36;;;;;;;7.60;6.80;;;30.80;1.00;;;;;;5081836;28;20186;-60
2021/06/17 08:50:04;;;;;;;8.47;6.97;;;30.70;1.00;;;;;;5091750;28;20436;-59
2021/06/17 08:52:34;;;;;;;8.60;7.90;;;30.80;1.00;;;;;;5084132;28;20429;-60
2021/06/17 08:55:29;;;;;;;7.70;7.00;;;30.90;1.00;;;;;;5082733;28;20412;-59
2021/06/17 08:57:57;;;;;;;7.83;7.10;;;31.10;1.00;;;;;;5064601;28;20661;-59
2021/06/17 09:00:23;;;;;;;7.57;6.97;;;31.40;1.00;;;;;;5083928;28;20459;-60
2021/06/17 09:03:09;;;;;;;7.27;6.73;;;31.50;1.00;;;;;;5081864;28;20466;-58
2021/06/17 09:05:38;;;;;;;7.70;6.97;;;31.60;1.00;;;;;;5087442;28;20960;-60
2021/06/17 09:08:06;;;;;;;8.37;6.43;;;31.60;1.00;;;;;;5082589;28;20940;-61
2021/06/17 09:10:32;;;;;;;6.10;5.60;;;31.40;1.00;;;;;;5088564;28;20503;-61
2021/06/17 09:13:00;;;;;;;6.13;5.53;;;31.30;1.00;;;;;;5082384;28;20544;-61
2021/06/17 09:15:49;;;;;;;5.77;5.27;;;31.30;1.00;;;;;;5090778;28;20668;-60
2021/06/17 09:18:20;;;;;;;6.93;6.33;;;31.40;1.00;;;;;;5088191;28;20432;-61
2021/06/17 09:20:52;;;;;;;6.90;5.83;;;31.60;1.00;;;;;;5079561;28;21976;-61
2021/06/17 09:23:21;;;;;;;7.07;5.53;;;31.80;1.00;;;;;;5077778;28;20440;-60
2021/06/17 09:25:47;;;;;;;9.30;5.50;;;32.00;1.00;;;;;;5083556;28;21013;-61
2021/06/17 09:28:14;;;;;;;6.37;5.73;;;32.20;1.00;;;;;;5078513;28;20480;-60
2021/06/17 09:30:39;;;;;;;6.20;5.60;;;32.30;1.00;;;;;;5080784;28;20449;-60
2021/06/17 09:33:10;;;;;;;6.03;5.53;;;32.40;1.00;;;;;;5089136;28;20430;-61
2021/06/17 09:35:51;;;;;;;5.10;4.70;;;32.50;1.00;;;;;;5081345;28;20226;-62
2021/06/17 09:38:17;;;;;;;5.20;4.70;;;32.50;1.00;;;;;;5069814;28;20471;-60
2021/06/17 09:40:47;;;;;;;6.57;5.37;;;32.40;1.00;;;;;;5071889;28;20428;-62
2021/06/17 09:43:24;;;;;;;6.23;5.63;;;32.40;1.00;;;;;;5088470;28;20512;-61
2021/06/17 09:45:59;;;;;;;6.73;5.33;;;32.50;1.00;;;;;;5090645;28;20486;-61
2021/06/17 09:48:50;;;;;;;5.03;4.63;;;32.60;1.00;;;;;;5077817;28;20574;-63
2021/06/17 09:51:27;;;;;;;5.43;4.40;;;32.40;1.00;;;;;;5092115;28;20471;-59
2021/06/17 09:54:06;;;;;;;6.40;5.23;;;32.40;1.00;;;;;;5079923;28;20556;-61
2021/06/17 09:56:34;;;;;;;6.43;5.83;;;32.30;1.00;;;;;;5084235;28;20956;-61
2021/06/17 09:58:59;;;;;;;6.20;4.50;;;32.40;1.00;;;;;;5080391;28;20438;-60
2021/06/17 10:01:35;;;;;;;7.37;5.00;;;32.30;1.00;;;;;;5089198;28;20439;-60
2021/06/17 10:04:07;;;;;;;6.03;4.77;;;32.50;1.00;;;;;;5089736;28;20178;-61
2021/06/17 10:06:35;;;;;;;5.73;5.17;;;32.40;1.00;;;;;;5080829;28;20443;-61
2021/06/17 10:09:04;;;;;;;6.60;6.07;;;32.40;1.00;;;;;;5072684;28;20446;-62
2021/06/17 10:11:30;;;;;;;6.50;5.40;;;32.60;1.00;;;;;;5080901;28;20407;-61
2021/06/17 10:13:56;;;;;;;5.93;5.43;;;32.80;1.00;;;;;;5087261;28;20440;-61
2021/06/17 10:16:22;;;;;;;7.00;5.93;;;32.90;1.00;;;;;;5092555;28;20198;-59
2021/06/17 10:18:47;;;;;;;6.20;5.63;;;32.90;1.00;;;;;;5092473;28;20507;-59
2021/06/17 10:21:17;;;;;;;7.93;5.40;;;33.00;1.00;;;;;;5081959;28;20502;-60
2021/06/17 10:23:44;;;;;;;8.50;7.70;;;32.80;1.00;;;;;;5078127;28;20175;-59
2021/06/17 10:26:10;;;;;;;5.60;5.07;;;33.10;1.00;;;;;;5080790;28;20438;-60
2021/06/17 10:28:46;;;;;;;5.27;4.77;;;33.30;1.00;;;;;;5078696;28;20991;-60
2021/06/17 10:31:32;;;;;;;7.50;5.73;;;33.20;1.00;;;;;;5082991;28;20440;-60
2021/06/17 10:34:18;;;;;;;6.43;5.77;;;33.10;1.00;;;;;;5084936;28;20418;-61
2021/06/17 10:37:09;;;;;;;10.00;8.37;;;33.10;1.00;;;;;;5083008;28;20870;-60
2021/06/17 10:39:43;;;;;;;7.70;5.53;;;33.00;1.00;;;;;;5085929;28;20768;-61
2021/06/17 10:42:13;;;;;;;6.07;5.43;;;33.10;1.00;;;;;;5073329;28;20404;-59
2021/06/17 10:44:49;;;;;;;6.03;5.33;;;33.10;1.00;;;;;;5084684;28;20456;-60
2021/06/17 10:50:09;;;;;;;5.27;4.80;;;33.40;1.00;;;;;;5085486;28;20456;-61
2021/06/17 10:52:37;;;;;;;5.23;4.80;;;33.20;1.00;;;;;;5077197;28;20401;-62
2021/06/17 10:55:04;;;;;;;5.70;5.20;;;33.10;1.00;;;;;;5079820;28;20440;-60
2021/06/17 10:57:43;;;;;;;5.30;4.80;;;33.20;1.00;;;;;;5073501;28;20444;-61
2021/06/17 11:00:28;;;;;;;5.30;4.90;;;33.20;1.00;;;;;;5089719;28;20466;-61
2021/06/17 11:03:06;;;;;;;5.20;4.80;;;33.40;1.00;;;;;;5088160;28;20813;-61
2021/06/17 11:05:32;;;;;;;7.00;4.77;;;33.40;1.00;;;;;;5075915;28;20959;-60
2021/06/17 11:08:19;;;;;;;5.93;4.93;;;33.30;1.00;;;;;;5080048;28;20425;-60
2021/06/17 11:11:08;;;;;;;5.57;4.60;;;33.40;1.00;;;;;;5077070;28;20924;-61
2021/06/17 11:13:39;;;;;;;6.20;5.60;;;33.20;1.00;;;;;;5082220;28;20429;-60
2021/06/17 11:16:33;;;;;;;5.50;5.10;;;33.20;1.00;;;;;;5076091;28;20465;-61
2021/06/17 11:19:09;;;;;;;6.03;5.43;;;33.10;1.00;;;;;;5070711;28;20445;-62
2021/06/17 11:21:34;;;;;;;7.90;5.73;;;33.20;1.00;;;;;;5082671;28;20581;-61
2021/06/17 11:24:21;;;;;;;6.33;5.80;;;33.10;1.00;;;;;;5082643;28;20491;-61
2021/06/17 11:26:49;;;;;;;6.30;5.80;;;33.00;1.00;;;;;;5072870;28;20190;-62
2021/06/17 11:29:39;;;;;;;5.23;4.73;;;32.80;1.00;;;;;;5088238;28;20431;-61
2021/06/17 11:32:24;;;;;;;7.47;5.00;;;32.90;1.00;;;;;;5075919;28;20964;-61
2021/06/17 11:34:50;;;;;;;5.97;5.43;;;32.90;1.00;;;;;;5072938;28;20791;-61
2021/06/17 11:37:16;;;;;;;9.63;5.90;;;32.90;1.00;;;;;;5080525;28;20442;-61
2021/06/17 11:39:45;;;;;;;5.30;4.80;;;32.90;1.00;;;;;;5084774;28;20429;-60
2021/06/17 11:42:18;;;;;;;17.67;6.87;;;32.90;1.00;;;;;;5082569;28;20176;-61
2021/06/17 11:44:43;;;;;;;5.97;5.37;;;33.10;1.00;;;;;;5068777;28;20429;-59
2021/06/17 11:47:12;;;;;;;5.47;4.97;;;33.20;1.00;;;;;;5074443;28;20452;-61
2021/06/17 11:49:40;;;;;;;5.57;5.10;;;33.40;1.00;;;;;;5075274;28;20211;-61
2021/06/17 11:52:08;;;;;;;6.83;5.87;;;33.30;1.00;;;;;;5081286;28;20447;-61
2021/06/17 11:54:34;;;;;;;6.20;5.60;;;33.20;1.00;;;;;;5077201;28;20491;-61
2021/06/17 11:57:01;;;;;;;7.70;7.00;;;33.30;1.00;;;;;;5081624;28;21027;-61
2021/06/17 11:59:31;;;;;;;5.60;5.00;;;33.30;1.00;;;;;;5070683;28;20179;-62
2021/06/17 12:02:19;;;;;;;6.90;5.20;;;33.40;1.00;;;;;;5082565;28;20943;-61
2021/06/17 12:04:57;;;;;;;6.60;5.00;;;33.40;1.00;;;;;;5072534;28;20438;-61
2021/06/17 12:07:26;;;;;;;4.87;4.43;;;33.40;1.00;;;;;;5076031;28;20528;-60
2021/06/17 12:09:54;;;;;;;5.43;5.03;;;33.20;1.00;;;;;;5073814;28;20412;-61
2021/06/17 12:12:25;;;;;;;6.17;5.67;;;33.30;1.00;;;;;;5074699;28;20783;-60
2021/06/17 12:14:54;;;;;;;5.53;5.00;;;33.60;1.00;;;;;;5082747;28;20482;-60
2021/06/17 12:17:34;;;;;;;6.10;5.30;;;33.80;1.00;;;;;;5076172;28;20461;-59
2021/06/17 12:20:11;;;;;;;8.23;5.77;;;33.80;1.00;;;;;;5076573;28;20465;-61
2021/06/17 12:22:42;;;;;;;5.30;4.80;;;33.80;1.00;;;;;;5070532;28;20441;-60
2021/06/17 12:25:09;;;;;;;6.90;5.10;;;33.70;1.00;;;;;;5087070;28;20409;-59
2021/06/17 12:27:38;;;;;;;5.83;5.13;;;33.70;1.00;;;;;;5080565;28;20525;-60
2021/06/17 12:30:39;;;;;;;5.57;5.07;;;33.70;1.00;;;;;;5090383;28;20490;-59
2021/06/17 12:33:20;;;;;;;6.13;4.87;;;33.50;1.00;;;;;;5075054;28;20436;-59
2021/06/17 12:35:45;;;;;;;4.63;4.23;;;33.40;1.00;;;;;;5086998;28;20540;-61
2021/06/17 12:38:13;;;;;;;6.63;4.57;;;33.40;1.00;;;;;;5076996;28;20464;-60
2021/06/17 12:40:41;;;;;;;5.00;4.60;;;33.30;1.00;;;;;;5086305;28;20179;-60
2021/06/17 12:43:21;;;;;;;5.37;4.10;;;33.40;1.00;;;;;;5078205;28;20442;-60
2021/06/17 12:46:08;;;;;;;5.67;4.60;;;33.40;1.00;;;;;;5075578;28;20441;-61
2021/06/17 12:54:23;;;;;;;6.83;3.80;;;33.50;1.00;;;;;;5089029;28;20460;-59
2021/06/17 12:57:04;;;;;;;3.93;3.63;;;33.40;1.00;;;;;;5078579;28;21043;-59
2021/06/17 12:59:51;;;;;;;3.90;3.60;;;33.50;1.00;;;;;;5081822;28;20881;-59
2021/06/17 13:02:22;;;;;;;4.17;3.63;;;33.70;1.00;;;;;;5076522;28;20426;-59
2021/06/17 13:05:01;;;;;;;4.73;4.07;;;33.70;1.00;;;;;;5072202;28;20425;-60
2021/06/17 13:07:27;;;;;;;6.33;3.50;;;33.50;1.00;;;;;;5085858;28;20638;-60
2021/06/17 13:10:19;;;;;;;4.20;3.90;;;33.60;1.00;;;;;;5083104;28;20432;-60